ΕΜΥ, Εθνική Μετεωρολογική Υπηρεσία - Δελτία Καιρού, Προγνώσεις

ΑΕΡΟΝΑΥΤΙΛΙΑ

GREEK AIRPORTS CODES

TAF LGPZ 031100Z 0312/0412 27010KT 9999 FEW020 BECMG 0318/0320 09006KT BECMG 0408/0410 27010KT=

EUROPEAN AIRPORTS CODES

LFPO 031030Z 29009KT 230V340 9999 SCT043 BKN160 20/09 Q1015NOSIG=